sensor_id;sensor_type;location;lat;lon;timestamp;pressure;altitude;pressure_sealevel;temperature;humidity
40730;BME280;26418;50.070;8.436;2022-08-19T00:01:25;99583.59;;;22.13;56.92
40730;BME280;26418;50.070;8.436;2022-08-19T00:03:51;99589.50;;;22.15;56.93
40730;BME280;26418;50.070;8.436;2022-08-19T00:06:16;99603.69;;;22.17;57.11
40730;BME280;26418;50.070;8.436;2022-08-19T00:08:42;99607.22;;;22.18;57.28
40730;BME280;26418;50.070;8.436;2022-08-19T00:11:09;99604.84;;;22.16;56.85
40730;BME280;26418;50.070;8.436;2022-08-19T00:13:34;99609.19;;;22.17;56.90
40730;BME280;26418;50.070;8.436;2022-08-19T00:16:01;99609.19;;;22.17;56.93
40730;BME280;26418;50.070;8.436;2022-08-19T00:18:27;99609.59;;;22.16;57.14
40730;BME280;26418;50.070;8.436;2022-08-19T00:20:53;99601.69;;;22.14;57.17
40730;BME280;26418;50.070;8.436;2022-08-19T00:23:19;99598.91;;;22.10;57.59
40730;BME280;26418;50.070;8.436;2022-08-19T00:25:44;99601.31;;;22.16;57.14
40730;BME280;26418;50.070;8.436;2022-08-19T00:28:10;99581.25;;;22.19;57.09
40730;BME280;26418;50.070;8.436;2022-08-19T00:30:36;99574.16;;;22.18;57.32
40730;BME280;26418;50.070;8.436;2022-08-19T00:33:02;99573.78;;;22.19;56.95
40730;BME280;26418;50.070;8.436;2022-08-19T00:35:27;99575.38;;;22.20;56.95
40730;BME280;26418;50.070;8.436;2022-08-19T00:37:54;99572.22;;;22.18;57.17
40730;BME280;26418;50.070;8.436;2022-08-19T00:40:20;99574.16;;;22.18;57.12
40730;BME280;26418;50.070;8.436;2022-08-19T00:42:46;99564.28;;;22.09;57.42
40730;BME280;26418;50.070;8.436;2022-08-19T00:45:16;99571.81;;;22.16;57.43
40730;BME280;26418;50.070;8.436;2022-08-19T00:47:44;99570.97;;;22.12;57.46
40730;BME280;26418;50.070;8.436;2022-08-19T00:50:12;99568.63;;;22.07;57.55
40730;BME280;26418;50.070;8.436;2022-08-19T00:52:43;99573.34;;;22.03;57.74
40730;BME280;26418;50.070;8.436;2022-08-19T00:55:14;99573.34;;;22.06;57.68
40730;BME280;26418;50.070;8.436;2022-08-19T00:57:46;99562.31;;;22.03;57.80
40730;BME280;26418;50.070;8.436;2022-08-19T01:00:16;99557.59;;;22.03;57.89
40730;BME280;26418;50.070;8.436;2022-08-19T01:02:43;99546.97;;;22.05;57.97
40730;BME280;26418;50.070;8.436;2022-08-19T01:05:11;99542.66;;;22.08;57.76
40730;BME280;26418;50.070;8.436;2022-08-19T01:07:39;99533.22;;;22.09;57.58
40730;BME280;26418;50.070;8.436;2022-08-19T01:10:12;99521.38;;;22.01;57.66
40730;BME280;26418;50.070;8.436;2022-08-19T01:12:38;99528.06;;;22.04;57.81
40730;BME280;26418;50.070;8.436;2022-08-19T01:15:10;99528.47;;;22.02;57.89
40730;BME280;26418;50.070;8.436;2022-08-19T01:17:38;99532.38;;;21.97;58.52
40730;BME280;26418;50.070;8.436;2022-08-19T01:20:05;99531.59;;;21.90;58.20
40730;BME280;26418;50.070;8.436;2022-08-19T01:22:43;99544.19;;;21.94;58.60
40730;BME280;26418;50.070;8.436;2022-08-19T01:25:09;99532.78;;;21.92;58.34
40730;BME280;26418;50.070;8.436;2022-08-19T01:27:53;99531.94;;;21.88;58.37
40730;BME280;26418;50.070;8.436;2022-08-19T01:30:24;99533.97;;;21.95;58.43
40730;BME280;26418;50.070;8.436;2022-08-19T01:32:51;99530.00;;;21.92;58.66
40730;BME280;26418;50.070;8.436;2022-08-19T01:35:17;99522.53;;;21.89;58.50
40730;BME280;26418;50.070;8.436;2022-08-19T01:37:51;99520.56;;;21.86;58.92
40730;BME280;26418;50.070;8.436;2022-08-19T01:40:19;99510.28;;;21.79;58.95
40730;BME280;26418;50.070;8.436;2022-08-19T01:42:47;99515.81;;;21.83;59.17
40730;BME280;26418;50.070;8.436;2022-08-19T01:45:13;99518.16;;;21.81;58.85
40730;BME280;26418;50.070;8.436;2022-08-19T01:47:38;99534.28;;;21.79;59.24
40730;BME280;26418;50.070;8.436;2022-08-19T01:50:06;99536.22;;;21.75;58.93
40730;BME280;26418;50.070;8.436;2022-08-19T01:52:32;99541.00;;;21.81;59.30
40730;BME280;26418;50.070;8.436;2022-08-19T01:54:59;99535.06;;;21.76;59.24
40730;BME280;26418;50.070;8.436;2022-08-19T01:57:25;99536.63;;;21.77;59.17
40730;BME280;26418;50.070;8.436;2022-08-19T01:59:51;99531.47;;;21.72;59.36
40730;BME280;26418;50.070;8.436;2022-08-19T02:02:16;99532.66;;;21.71;59.74
40730;BME280;26418;50.070;8.436;2022-08-19T02:04:42;99549.16;;;21.71;59.66
40730;BME280;26418;50.070;8.436;2022-08-19T02:07:08;99536.22;;;21.71;59.60
40730;BME280;26418;50.070;8.436;2022-08-19T02:09:33;99551.91;;;21.71;59.86
40730;BME280;26418;50.070;8.436;2022-08-19T02:11:59;99550.72;;;21.68;59.52
40730;BME280;26418;50.070;8.436;2022-08-19T02:14:24;99549.97;;;21.71;59.98
40730;BME280;26418;50.070;8.436;2022-08-19T02:16:50;99549.97;;;21.67;60.13
40730;BME280;26418;50.070;8.436;2022-08-19T02:19:15;99543.63;;;21.63;60.15
40730;BME280;26418;50.070;8.436;2022-08-19T02:21:41;99541.28;;;21.62;59.78
40730;BME280;26418;50.070;8.436;2022-08-19T02:24:06;99557.03;;;21.65;59.83
40730;BME280;26418;50.070;8.436;2022-08-19T02:26:33;99560.13;;;21.60;60.00
40730;BME280;26418;50.070;8.436;2022-08-19T02:28:58;99564.47;;;21.61;60.16
40730;BME280;26418;50.070;8.436;2022-08-19T02:31:25;99552.19;;;21.51;60.16
40730;BME280;26418;50.070;8.436;2022-08-19T02:33:52;99549.00;;;21.45;60.62
40730;BME280;26418;50.070;8.436;2022-08-19T02:36:17;99556.44;;;21.41;60.87
40730;BME280;26418;50.070;8.436;2022-08-19T02:38:44;99549.00;;;21.42;61.03
40730;BME280;26418;50.070;8.436;2022-08-19T02:41:31;99555.25;;;21.39;60.82
40730;BME280;26418;50.070;8.436;2022-08-19T02:43:59;99546.97;;;21.35;60.97
40730;BME280;26418;50.070;8.436;2022-08-19T02:46:28;99557.53;;;21.29;61.54
40730;BME280;26418;50.070;8.436;2022-08-19T02:49:05;99550.06;;;21.26;61.55
40730;BME280;26418;50.070;8.436;2022-08-19T02:51:41;99557.06;;;21.16;61.58
40730;BME280;26418;50.070;8.436;2022-08-19T02:54:09;99563.78;;;21.19;62.12
40730;BME280;26418;50.070;8.436;2022-08-19T02:56:37;99557.84;;;21.13;62.18
40730;BME280;26418;50.070;8.436;2022-08-19T02:59:03;99556.22;;;21.09;62.17
40730;BME280;26418;50.070;8.436;2022-08-19T03:01:36;99560.91;;;21.04;62.15
40730;BME280;26418;50.070;8.436;2022-08-19T03:04:04;99543.94;;;20.99;62.31
40730;BME280;26418;50.070;8.436;2022-08-19T03:06:30;99553.44;;;21.05;62.79
40730;BME280;26418;50.070;8.436;2022-08-19T03:08:56;99553.44;;;21.05;62.74
40730;BME280;26418;50.070;8.436;2022-08-19T03:11:24;99553.41;;;21.01;62.72
40730;BME280;26418;50.070;8.436;2022-08-19T03:13:51;99564.00;;;20.99;62.91
40730;BME280;26418;50.070;8.436;2022-08-19T03:16:18;99563.16;;;20.95;63.04
40730;BME280;26418;50.070;8.436;2022-08-19T03:18:43;99558.91;;;20.98;63.66
40730;BME280;26418;50.070;8.436;2022-08-19T03:21:14;99550.63;;;20.94;63.25
40730;BME280;26418;50.070;8.436;2022-08-19T03:23:39;99553.69;;;20.89;63.58
40730;BME280;26418;50.070;8.436;2022-08-19T03:26:05;99556.03;;;20.87;63.82
40730;BME280;26418;50.070;8.436;2022-08-19T03:28:31;99550.16;;;20.85;63.89
40730;BME280;26418;50.070;8.436;2022-08-19T03:31:03;99550.88;;;20.82;63.93
40730;BME280;26418;50.070;8.436;2022-08-19T03:33:30;99557.94;;;20.79;63.96
40730;BME280;26418;50.070;8.436;2022-08-19T03:36:01;99541.72;;;20.70;64.21
40730;BME280;26418;50.070;8.436;2022-08-19T03:38:27;99561.06;;;20.78;63.93
40730;BME280;26418;50.070;8.436;2022-08-19T03:40:53;99554.03;;;20.80;63.95
40730;BME280;26418;50.070;8.436;2022-08-19T03:43:18;99563.84;;;20.81;64.01
40730;BME280;26418;50.070;8.436;2022-08-19T03:45:44;99559.53;;;20.80;64.09
40730;BME280;26418;50.070;8.436;2022-08-19T03:48:09;99561.81;;;20.75;64.22
40730;BME280;26418;50.070;8.436;2022-08-19T03:50:39;99560.59;;;20.72;64.00
40730;BME280;26418;50.070;8.436;2022-08-19T03:53:05;99567.25;;;20.71;64.52
40730;BME280;26418;50.070;8.436;2022-08-19T03:55:31;99573.91;;;20.70;64.16
40730;BME280;26418;50.070;8.436;2022-08-19T03:57:56;99573.50;;;20.68;64.19
40730;BME280;26418;50.070;8.436;2022-08-19T04:00:22;99565.16;;;20.57;64.38
40730;BME280;26418;50.070;8.436;2022-08-19T04:02:47;99562.69;;;20.48;64.90
40730;BME280;26418;50.070;8.436;2022-08-19T04:05:13;99568.25;;;20.52;64.93
40730;BME280;26418;50.070;8.436;2022-08-19T04:07:39;99572.56;;;20.53;65.15
40730;BME280;26418;50.070;8.436;2022-08-19T04:10:05;99571.41;;;20.54;64.92
40730;BME280;26418;50.070;8.436;2022-08-19T04:12:31;99572.97;;;20.55;65.13
40730;BME280;26418;50.070;8.436;2022-08-19T04:14:56;99572.66;;;20.60;64.77
40730;BME280;26418;50.070;8.436;2022-08-19T04:17:22;99573.00;;;20.58;65.09
40730;BME280;26418;50.070;8.436;2022-08-19T04:19:47;99580.06;;;20.56;65.31
40730;BME280;26418;50.070;8.436;2022-08-19T04:22:12;99578.47;;;20.55;65.25
40730;BME280;26418;50.070;8.436;2022-08-19T04:24:38;99580.78;;;20.53;65.34
40730;BME280;26418;50.070;8.436;2022-08-19T04:27:04;99585.16;;;20.57;65.42
40730;BME280;26418;50.070;8.436;2022-08-19T04:29:31;99582.44;;;20.61;65.35
40730;BME280;26418;50.070;8.436;2022-08-19T04:31:58;99569.88;;;20.56;65.34
40730;BME280;26418;50.070;8.436;2022-08-19T04:34:27;99566.78;;;20.62;65.12
40730;BME280;26418;50.070;8.436;2022-08-19T04:36:55;99574.19;;;20.57;65.08
40730;BME280;26418;50.070;8.436;2022-08-19T04:39:24;99570.22;;;20.55;65.33
40730;BME280;26418;50.070;8.436;2022-08-19T04:42:10;99571.34;;;20.50;65.37
40730;BME280;26418;50.070;8.436;2022-08-19T04:44:54;99584.34;;;20.53;65.42
40730;BME280;26418;50.070;8.436;2022-08-19T04:47:19;99582.00;;;20.52;65.63
40730;BME280;26418;50.070;8.436;2022-08-19T04:49:45;99591.41;;;20.51;65.67
40730;BME280;26418;50.070;8.436;2022-08-19T04:52:10;99585.56;;;20.56;65.74
40730;BME280;26418;50.070;8.436;2022-08-19T04:54:36;99586.69;;;20.51;65.48
40730;BME280;26418;50.070;8.436;2022-08-19T04:57:01;99600.03;;;20.53;65.39
40730;BME280;26418;50.070;8.436;2022-08-19T04:59:27;99592.97;;;20.52;65.59
40730;BME280;26418;50.070;8.436;2022-08-19T05:01:53;99583.84;;;20.44;65.86
40730;BME280;26418;50.070;8.436;2022-08-19T05:04:20;99607.53;;;20.56;65.37
40730;BME280;26418;50.070;8.436;2022-08-19T05:06:47;99618.59;;;20.63;65.57
40730;BME280;26418;50.070;8.436;2022-08-19T05:09:13;99611.59;;;20.69;65.06
40730;BME280;26418;50.070;8.436;2022-08-19T05:11:40;99610.13;;;20.76;64.89
40730;BME280;26418;50.070;8.436;2022-08-19T05:14:07;99599.97;;;20.83;64.73
40730;BME280;26418;50.070;8.436;2022-08-19T05:16:33;99603.56;;;20.87;64.67
40730;BME280;26418;50.070;8.436;2022-08-19T05:18:59;99595.00;;;20.96;64.45
40730;BME280;26418;50.070;8.436;2022-08-19T05:21:43;99609.22;;;21.05;64.15
40730;BME280;26418;50.070;8.436;2022-08-19T05:24:29;99607.75;;;21.15;63.73
40730;BME280;26418;50.070;8.436;2022-08-19T05:26:55;99610.91;;;21.21;63.67
40730;BME280;26418;50.070;8.436;2022-08-19T05:29:26;99600.31;;;21.19;63.35
40730;BME280;26418;50.070;8.436;2022-08-19T05:31:53;99606.69;;;21.31;63.16
40730;BME280;26418;50.070;8.436;2022-08-19T05:34:21;99605.91;;;21.34;62.83
40730;BME280;26418;50.070;8.436;2022-08-19T05:36:49;99598.81;;;21.29;62.84
40730;BME280;26418;50.070;8.436;2022-08-19T05:39:19;99607.50;;;21.39;62.37
40730;BME280;26418;50.070;8.436;2022-08-19T05:41:46;99615.47;;;21.47;62.15
40730;BME280;26418;50.070;8.436;2022-08-19T05:44:13;99612.72;;;21.51;62.40
40730;BME280;26418;50.070;8.436;2022-08-19T05:46:40;99624.94;;;21.57;62.21
40730;BME280;26418;50.070;8.436;2022-08-19T05:49:06;99615.19;;;21.63;62.00
40730;BME280;26418;50.070;8.436;2022-08-19T05:51:33;99621.09;;;21.65;61.53
40730;BME280;26418;50.070;8.436;2022-08-19T05:54:03;99616.44;;;21.73;61.44
40730;BME280;26418;50.070;8.436;2022-08-19T05:56:30;99616.47;;;21.80;61.58
40730;BME280;26418;50.070;8.436;2022-08-19T05:58:59;99616.50;;;21.84;61.39
40730;BME280;26418;50.070;8.436;2022-08-19T06:01:26;99615.78;;;21.94;61.06
40730;BME280;26418;50.070;8.436;2022-08-19T06:03:52;99618.16;;;21.99;60.52
40730;BME280;26418;50.070;8.436;2022-08-19T06:06:18;99628.41;;;21.99;60.63
40730;BME280;26418;50.070;8.436;2022-08-19T06:08:44;99612.56;;;21.81;60.84
40730;BME280;26418;50.070;8.436;2022-08-19T06:11:17;99640.94;;;21.96;60.85
40730;BME280;26418;50.070;8.436;2022-08-19T06:13:44;99632.31;;;21.94;61.16
40730;BME280;26418;50.070;8.436;2022-08-19T06:16:13;99633.84;;;21.92;61.13
40730;BME280;26418;50.070;8.436;2022-08-19T06:18:44;99631.09;;;21.92;60.97
40730;BME280;26418;50.070;8.436;2022-08-19T06:21:10;99651.97;;;21.96;60.89
40730;BME280;26418;50.070;8.436;2022-08-19T06:23:35;99651.63;;;22.02;60.60
40730;BME280;26418;50.070;8.436;2022-08-19T06:26:01;99656.69;;;21.99;60.61
40730;BME280;26418;50.070;8.436;2022-08-19T06:28:26;99669.34;;;22.08;60.44
40730;BME280;26418;50.070;8.436;2022-08-19T06:30:52;99668.16;;;22.09;60.40
40730;BME280;26418;50.070;8.436;2022-08-19T06:33:17;99662.28;;;22.14;60.44
40730;BME280;26418;50.070;8.436;2022-08-19T06:35:42;99679.25;;;22.23;59.94
40730;BME280;26418;50.070;8.436;2022-08-19T06:38:08;99680.09;;;22.31;59.91
40730;BME280;26418;50.070;8.436;2022-08-19T06:40:35;99683.28;;;22.37;59.88
40730;BME280;26418;50.070;8.436;2022-08-19T06:43:01;99694.34;;;22.44;59.10
40730;BME280;26418;50.070;8.436;2022-08-19T06:45:28;99697.91;;;22.48;59.15
40730;BME280;26418;50.070;8.436;2022-08-19T06:47:53;99699.09;;;22.51;59.45
40730;BME280;26418;50.070;8.436;2022-08-19T06:50:23;99691.22;;;22.49;59.04
40730;BME280;26418;50.070;8.436;2022-08-19T06:52:49;99688.47;;;22.56;58.84
40730;BME280;26418;50.070;8.436;2022-08-19T06:55:15;99678.25;;;22.53;58.84
40730;BME280;26418;50.070;8.436;2022-08-19T06:57:41;99699.53;;;22.60;58.76
40730;BME280;26418;50.070;8.436;2022-08-19T07:00:08;99705.84;;;22.60;58.72
40730;BME280;26418;50.070;8.436;2022-08-19T07:02:36;99708.63;;;22.68;58.47
40730;BME280;26418;50.070;8.436;2022-08-19T07:05:03;99710.22;;;22.72;58.69
40730;BME280;26418;50.070;8.436;2022-08-19T07:07:29;99706.31;;;22.81;58.35
40730;BME280;26418;50.070;8.436;2022-08-19T07:09:56;99700.81;;;22.88;58.30
40730;BME280;26418;50.070;8.436;2022-08-19T07:12:21;99702.78;;;22.95;57.33
40730;BME280;26418;50.070;8.436;2022-08-19T07:14:46;99692.13;;;22.97;57.58
40730;BME280;26418;50.070;8.436;2022-08-19T07:17:13;99698.47;;;22.97;57.50
40730;BME280;26418;50.070;8.436;2022-08-19T07:19:40;99691.78;;;22.98;57.25
40730;BME280;26418;50.070;8.436;2022-08-19T07:22:07;99707.94;;;23.11;57.07
40730;BME280;26418;50.070;8.436;2022-08-19T07:24:33;99711.50;;;23.15;57.10
40730;BME280;26418;50.070;8.436;2022-08-19T07:27:01;99715.44;;;23.17;56.79
40730;BME280;26418;50.070;8.436;2022-08-19T07:29:30;99714.66;;;23.17;56.71
40730;BME280;26418;50.070;8.436;2022-08-19T07:31:56;99711.13;;;23.20;56.84
40730;BME280;26418;50.070;8.436;2022-08-19T07:34:24;99705.22;;;23.18;56.33
40730;BME280;26418;50.070;8.436;2022-08-19T07:36:51;99702.09;;;23.23;56.48
40730;BME280;26418;50.070;8.436;2022-08-19T07:39:24;99703.28;;;23.33;56.21
40730;BME280;26418;50.070;8.436;2022-08-19T07:41:50;99697.75;;;23.33;56.19
40730;BME280;26418;50.070;8.436;2022-08-19T07:44:17;99696.97;;;23.29;56.20
40730;BME280;26418;50.070;8.436;2022-08-19T07:46:46;99696.97;;;23.43;56.07
40730;BME280;26418;50.070;8.436;2022-08-19T07:49:14;99701.31;;;23.55;55.87
40730;BME280;26418;50.070;8.436;2022-08-19T07:51:49;99702.09;;;23.59;55.24
40730;BME280;26418;50.070;8.436;2022-08-19T07:54:15;99704.06;;;23.69;55.17
40730;BME280;26418;50.070;8.436;2022-08-19T07:56:41;99707.22;;;23.79;55.06
40730;BME280;26418;50.070;8.436;2022-08-19T07:59:07;99702.06;;;23.88;54.63
40730;BME280;26418;50.070;8.436;2022-08-19T08:01:35;99707.22;;;24.00;53.89
40730;BME280;26418;50.070;8.436;2022-08-19T08:04:00;99711.53;;;24.05;53.66
40730;BME280;26418;50.070;8.436;2022-08-19T08:06:45;99704.84;;;24.02;53.71
40730;BME280;26418;50.070;8.436;2022-08-19T08:09:35;99711.53;;;24.05;54.01
40730;BME280;26418;50.070;8.436;2022-08-19T08:12:11;99717.81;;;24.20;53.51
40730;BME280;26418;50.070;8.436;2022-08-19T08:14:44;99714.28;;;24.20;53.57
40730;BME280;26418;50.070;8.436;2022-08-19T08:17:11;99718.59;;;24.28;53.34
40730;BME280;26418;50.070;8.436;2022-08-19T08:19:38;99733.22;;;24.25;53.38
40730;BME280;26418;50.070;8.436;2022-08-19T08:22:06;99724.16;;;24.21;53.81
40730;BME280;26418;50.070;8.436;2022-08-19T08:24:32;99735.56;;;24.26;53.53
40730;BME280;26418;50.070;8.436;2022-08-19T08:26:59;99723.75;;;24.26;53.73
40730;BME280;26418;50.070;8.436;2022-08-19T08:29:28;99733.19;;;24.32;53.50
40730;BME280;26418;50.070;8.436;2022-08-19T08:31:55;99726.44;;;24.40;53.22
40730;BME280;26418;50.070;8.436;2022-08-19T08:34:20;99740.25;;;24.55;52.91
40730;BME280;26418;50.070;8.436;2022-08-19T08:36:46;99734.28;;;24.60;52.49
40730;BME280;26418;50.070;8.436;2022-08-19T08:39:14;99727.56;;;24.68;52.03
40730;BME280;26418;50.070;8.436;2022-08-19T08:44:36;99728.69;;;24.82;51.69
40730;BME280;26418;50.070;8.436;2022-08-19T08:47:09;99726.22;;;24.98;50.81
40730;BME280;26418;50.070;8.436;2022-08-19T08:49:45;99729.31;;;25.11;50.56
40730;BME280;26418;50.070;8.436;2022-08-19T08:54:48;99735.91;;;25.35;49.34
40730;BME280;26418;50.070;8.436;2022-08-19T08:57:30;99744.94;;;25.47;49.09
40730;BME280;26418;50.070;8.436;2022-08-19T08:59:57;99738.91;;;25.59;49.25
40730;BME280;26418;50.070;8.436;2022-08-19T09:02:26;99735.31;;;25.66;48.18
40730;BME280;26418;50.070;8.436;2022-08-19T09:04:54;99724.19;;;25.69;48.51
40730;BME280;26418;50.070;8.436;2022-08-19T09:09:48;99728.41;;;25.85;47.69
40730;BME280;26418;50.070;8.436;2022-08-19T09:12:31;99732.59;;;26.00;46.69
40730;BME280;26418;50.070;8.436;2022-08-19T09:15:07;99721.09;;;26.05;46.73
40730;BME280;26418;50.070;8.436;2022-08-19T09:17:35;99722.66;;;26.06;47.13
40730;BME280;26418;50.070;8.436;2022-08-19T09:22:32;99711.72;;;26.34;46.70
40730;BME280;26418;50.070;8.436;2022-08-19T09:24:57;99714.22;;;26.56;45.67
40730;BME280;26418;50.070;8.436;2022-08-19T09:27:24;99715.19;;;26.76;44.63
40730;BME280;26418;50.070;8.436;2022-08-19T09:29:53;99711.44;;;26.90;44.54
40730;BME280;26418;50.070;8.436;2022-08-19T09:32:25;99716.06;;;26.97;44.81
40730;BME280;26418;50.070;8.436;2022-08-19T09:34:52;99700.56;;;26.99;44.50
40730;BME280;26418;50.070;8.436;2022-08-19T09:37:24;99691.38;;;27.06;43.78
40730;BME280;26418;50.070;8.436;2022-08-19T09:39:50;99700.00;;;27.12;43.04
40730;BME280;26418;50.070;8.436;2022-08-19T09:42:15;99690.22;;;27.04;43.61
40730;BME280;26418;50.070;8.436;2022-08-19T09:44:41;99687.09;;;27.25;43.52
40730;BME280;26418;50.070;8.436;2022-08-19T09:47:08;99697.53;;;27.45;43.51
40730;BME280;26418;50.070;8.436;2022-08-19T09:49:34;99693.09;;;27.24;43.42
40730;BME280;26418;50.070;8.436;2022-08-19T09:52:00;99703.47;;;27.20;43.79
40730;BME280;26418;50.070;8.436;2022-08-19T09:54:26;99707.97;;;27.10;44.16
40730;BME280;26418;50.070;8.436;2022-08-19T09:56:55;99695.16;;;27.20;44.06
40730;BME280;26418;50.070;8.436;2022-08-19T09:59:22;99692.50;;;27.36;43.93
40730;BME280;26418;50.070;8.436;2022-08-19T10:01:48;99696.84;;;27.37;44.10
40730;BME280;26418;50.070;8.436;2022-08-19T10:04:13;99699.84;;;27.74;43.21
40730;BME280;26418;50.070;8.436;2022-08-19T10:06:40;99692.22;;;27.78;42.98
40730;BME280;26418;50.070;8.436;2022-08-19T10:09:08;99691.00;;;27.79;42.22
40730;BME280;26418;50.070;8.436;2022-08-19T10:11:35;99693.22;;;27.88;41.78
40730;BME280;26418;50.070;8.436;2022-08-19T10:14:03;99691.09;;;27.96;41.28
40730;BME280;26418;50.070;8.436;2022-08-19T10:16:31;99696.75;;;27.92;41.10
40730;BME280;26418;50.070;8.436;2022-08-19T10:18:57;99687.66;;;27.17;42.91
40730;BME280;26418;50.070;8.436;2022-08-19T10:21:28;99697.44;;;27.25;43.51
40730;BME280;26418;50.070;8.436;2022-08-19T10:23:56;99690.63;;;27.29;43.35
40730;BME280;26418;50.070;8.436;2022-08-19T10:26:35;99693.44;;;27.53;42.20
40730;BME280;26418;50.070;8.436;2022-08-19T10:29:03;99690.25;;;27.79;41.64
40730;BME280;26418;50.070;8.436;2022-08-19T10:31:32;99687.75;;;28.04;40.48
40730;BME280;26418;50.070;8.436;2022-08-19T10:33:58;99675.25;;;28.36;40.51
40730;BME280;26418;50.070;8.436;2022-08-19T10:36:27;99688.06;;;28.50;39.39
40730;BME280;26418;50.070;8.436;2022-08-19T10:38:55;99676.53;;;28.52;38.99
40730;BME280;26418;50.070;8.436;2022-08-19T10:41:26;99698.22;;;28.97;38.44
40730;BME280;26418;50.070;8.436;2022-08-19T10:43:53;99695.34;;;29.38;37.87
40730;BME280;26418;50.070;8.436;2022-08-19T10:46:20;99688.84;;;29.74;36.86
40730;BME280;26418;50.070;8.436;2022-08-19T10:48:47;99681.06;;;29.98;36.84
40730;BME280;26418;50.070;8.436;2022-08-19T10:51:13;99681.59;;;30.35;36.39
40730;BME280;26418;50.070;8.436;2022-08-19T10:53:57;99671.66;;;30.64;34.99
40730;BME280;26418;50.070;8.436;2022-08-19T10:56:23;99679.03;;;30.83;34.79
40730;BME280;26418;50.070;8.436;2022-08-19T10:59:09;99686.41;;;31.03;35.39
40730;BME280;26418;50.070;8.436;2022-08-19T11:01:35;99676.47;;;30.76;34.83
40730;BME280;26418;50.070;8.436;2022-08-19T11:04:02;99684.75;;;30.37;34.64
40730;BME280;26418;50.070;8.436;2022-08-19T11:06:28;99663.44;;;30.01;34.49
40730;BME280;26418;50.070;8.436;2022-08-19T11:08:54;99669.47;;;30.00;34.76
40730;BME280;26418;50.070;8.436;2022-08-19T11:11:20;99653.06;;;30.02;34.61
40730;BME280;26418;50.070;8.436;2022-08-19T11:13:48;99664.63;;;30.17;34.20
40730;BME280;26418;50.070;8.436;2022-08-19T11:16:24;99670.75;;;30.54;33.56
40730;BME280;26418;50.070;8.436;2022-08-19T11:18:53;99655.91;;;30.70;32.78
40730;BME280;26418;50.070;8.436;2022-08-19T11:21:28;99648.19;;;31.00;33.06
40730;BME280;26418;50.070;8.436;2022-08-19T11:23:57;99662.50;;;31.15;32.85
40730;BME280;26418;50.070;8.436;2022-08-19T11:26:23;99653.47;;;30.85;33.04
40730;BME280;26418;50.070;8.436;2022-08-19T11:28:49;99657.25;;;30.52;33.02
40730;BME280;26418;50.070;8.436;2022-08-19T11:31:22;99649.53;;;30.56;33.66
40730;BME280;26418;50.070;8.436;2022-08-19T11:33:48;99639.41;;;30.88;33.86
40730;BME280;26418;50.070;8.436;2022-08-19T11:36:17;99638.91;;;31.29;33.59
40730;BME280;26418;50.070;8.436;2022-08-19T11:38:43;99626.13;;;31.41;32.05
40730;BME280;26418;50.070;8.436;2022-08-19T11:41:09;99633.69;;;31.53;31.80
40730;BME280;26418;50.070;8.436;2022-08-19T11:43:35;99625.44;;;31.85;31.43
40730;BME280;26418;50.070;8.436;2022-08-19T11:46:11;99610.66;;;32.06;31.48
40730;BME280;26418;50.070;8.436;2022-08-19T11:48:38;99607.53;;;32.26;30.22
40730;BME280;26418;50.070;8.436;2022-08-19T11:51:10;99594.31;;;32.27;30.24
40730;BME280;26418;50.070;8.436;2022-08-19T11:53:37;99604.34;;;31.93;29.67
40730;BME280;26418;50.070;8.436;2022-08-19T11:56:03;99586.16;;;31.53;31.12
40730;BME280;26418;50.070;8.436;2022-08-19T11:58:30;99595.72;;;31.65;30.88
40730;BME280;26418;50.070;8.436;2022-08-19T12:00:56;99593.97;;;31.93;31.01
40730;BME280;26418;50.070;8.436;2022-08-19T12:03:22;99597.34;;;32.42;29.63
40730;BME280;26418;50.070;8.436;2022-08-19T12:05:48;99610.75;;;32.79;29.60
40730;BME280;26418;50.070;8.436;2022-08-19T12:08:15;99610.97;;;33.21;28.86
40730;BME280;26418;50.070;8.436;2022-08-19T12:10:41;99614.75;;;33.46;28.23
40730;BME280;26418;50.070;8.436;2022-08-19T12:13:08;99607.91;;;33.47;28.70
40730;BME280;26418;50.070;8.436;2022-08-19T12:15:39;99612.13;;;33.52;28.27
40730;BME280;26418;50.070;8.436;2022-08-19T12:18:09;99617.72;;;33.52;27.70
40730;BME280;26418;50.070;8.436;2022-08-19T12:20:37;99625.22;;;33.64;27.51
40730;BME280;26418;50.070;8.436;2022-08-19T12:23:04;99604.97;;;33.60;26.48
40730;BME280;26418;50.070;8.436;2022-08-19T12:25:30;99613.34;;;33.23;27.42
40730;BME280;26418;50.070;8.436;2022-08-19T12:27:57;99594.19;;;32.71;28.22
40730;BME280;26418;50.070;8.436;2022-08-19T12:30:23;99616.06;;;32.01;27.97
40730;BME280;26418;50.070;8.436;2022-08-19T12:32:48;99618.00;;;31.33;28.65
40730;BME280;26418;50.070;8.436;2022-08-19T12:35:14;99612.09;;;31.05;30.05
40730;BME280;26418;50.070;8.436;2022-08-19T12:37:39;99609.78;;;30.91;30.61
40730;BME280;26418;50.070;8.436;2022-08-19T12:40:08;99605.09;;;30.75;30.85
40730;BME280;26418;50.070;8.436;2022-08-19T12:42:33;99616.25;;;30.75;31.32
40730;BME280;26418;50.070;8.436;2022-08-19T12:45:00;99593.25;;;30.84;31.05
40730;BME280;26418;50.070;8.436;2022-08-19T12:47:25;99584.28;;;31.02;30.69
40730;BME280;26418;50.070;8.436;2022-08-19T12:49:52;99593.25;;;31.10;30.37
40730;BME280;26418;50.070;8.436;2022-08-19T12:52:17;99592.31;;;31.26;29.53
40730;BME280;26418;50.070;8.436;2022-08-19T12:54:46;99583.41;;;31.18;28.69
40730;BME280;26418;50.070;8.436;2022-08-19T12:57:11;99595.38;;;30.93;28.40
40730;BME280;26418;50.070;8.436;2022-08-19T12:59:38;99570.59;;;30.69;28.94
40730;BME280;26418;50.070;8.436;2022-08-19T13:02:05;99573.63;;;30.74;29.35
40730;BME280;26418;50.070;8.436;2022-08-19T13:04:32;99564.22;;;30.68;29.41
40730;BME280;26418;50.070;8.436;2022-08-19T13:07:00;99596.72;;;30.62;30.12
40730;BME280;26418;50.070;8.436;2022-08-19T13:09:25;99582.72;;;30.23;30.38
40730;BME280;26418;50.070;8.436;2022-08-19T13:11:50;99578.13;;;30.04;30.13
40730;BME280;26418;50.070;8.436;2022-08-19T13:14:16;99566.56;;;29.89;30.11